Time;durP1;ratioP1;P1;durP2;ratioP2;P2;SDS_P1;SDS_P2;PMS_P1;PMS_P2;Temp;Humidity;BMP_temperature;BMP_pressure;BME280_temperature;BME280_humidity;BME280_pressure;Samples;Min_cycle;Max_cycle;Signal;HPM_P1;HPM_P2
2021/10/04 00:00:07;;;;;;;58.07;2.60;;;14.60;1.00;;;;;;5132807;28;20467;-73
2021/10/04 00:02:34;;;;;;;57.93;2.70;;;14.60;1.00;;;;;;5132771;28;20449;-74
2021/10/04 00:05:02;;;;;;;57.97;2.50;;;14.60;1.00;;;;;;5132340;28;20532;-73
2021/10/04 00:07:29;;;;;;;58.20;2.40;;;14.60;1.00;;;;;;5132331;28;20536;-73
2021/10/04 00:09:56;;;;;;;58.27;2.70;;;14.60;1.00;;;;;;5132647;28;20445;-73
2021/10/04 00:12:23;;;;;;;58.20;2.57;;;14.60;1.00;;;;;;5132388;28;20488;-73
2021/10/04 00:14:50;;;;;;;58.20;2.70;;;14.60;1.00;;;;;;5130505;28;20577;-73
2021/10/04 00:17:17;;;;;;;58.07;2.77;;;14.60;1.00;;;;;;5131861;28;20444;-73
2021/10/04 00:19:44;;;;;;;58.10;2.70;;;14.60;1.00;;;;;;5132444;28;20443;-73
2021/10/04 00:22:12;;;;;;;58.20;2.60;;;14.60;1.00;;;;;;5132560;28;20836;-73
2021/10/04 00:24:39;;;;;;;58.30;2.80;;;14.50;1.00;;;;;;5132622;28;20456;-73
2021/10/04 00:27:06;;;;;;;58.07;2.60;;;14.50;1.00;;;;;;5132144;28;20456;-74
2021/10/04 00:29:33;;;;;;;58.03;2.40;;;14.50;1.00;;;;;;5132193;28;21040;-73
2021/10/04 00:32:00;;;;;;;57.87;2.50;;;14.40;1.00;;;;;;5132579;28;20888;-73
2021/10/04 00:34:27;;;;;;;58.20;2.60;;;14.40;1.00;;;;;;5132541;28;20480;-74
2021/10/04 00:36:53;;;;;;;58.27;2.93;;;14.40;1.00;;;;;;5132275;28;20875;-74
2021/10/04 00:39:22;;;;;;;58.10;2.70;;;14.30;1.00;;;;;;5132310;28;20556;-73
2021/10/04 00:41:49;;;;;;;58.30;2.53;;;14.30;1.00;;;;;;5132186;28;20536;-73
2021/10/04 00:44:16;;;;;;;58.03;2.50;;;14.20;1.00;;;;;;5132122;28;20536;-74
2021/10/04 00:46:43;;;;;;;58.27;2.50;;;14.20;1.00;;;;;;5129949;28;20542;-74
2021/10/04 00:49:10;;;;;;;58.23;2.50;;;14.10;1.00;;;;;;5131969;28;20470;-73
2021/10/04 00:51:36;;;;;;;58.20;2.87;;;14.10;1.00;;;;;;5132284;28;20533;-73
2021/10/04 00:54:04;;;;;;;58.10;2.50;;;14.00;1.00;;;;;;5132287;28;20449;-74
2021/10/04 00:56:32;;;;;;;58.13;2.60;;;14.00;1.00;;;;;;5131907;28;20441;-74
2021/10/04 00:59:00;;;;;;;58.00;2.60;;;14.00;1.00;;;;;;5131761;28;20485;-73
2021/10/04 01:01:28;;;;;;;58.30;2.70;;;13.90;1.00;;;;;;5132094;27;20441;-73
2021/10/04 01:03:55;;;;;;;57.83;2.73;;;13.90;1.00;;;;;;5135458;27;20460;-73
2021/10/04 01:06:23;;;;;;;58.00;2.53;;;13.90;1.00;;;;;;5135626;27;20472;-74
2021/10/04 01:08:49;;;;;;;58.27;2.50;;;13.90;1.00;;;;;;5135923;27;20469;-74
2021/10/04 01:11:17;;;;;;;58.30;2.80;;;13.90;1.00;;;;;;5135539;27;20868;-74
2021/10/04 01:13:45;;;;;;;58.50;2.90;;;13.90;1.00;;;;;;5135783;27;20471;-74
2021/10/04 01:16:12;;;;;;;58.07;2.67;;;13.80;1.00;;;;;;5135212;27;20482;-73
2021/10/04 01:18:39;;;;;;;58.27;2.60;;;13.80;1.00;;;;;;5133572;27;20476;-74
2021/10/04 01:21:07;;;;;;;58.43;2.90;;;13.80;1.00;;;;;;5135303;27;21040;-74
2021/10/04 01:23:34;;;;;;;58.50;3.10;;;13.80;1.00;;;;;;5135384;27;20446;-74
2021/10/04 01:26:01;;;;;;;58.17;2.70;;;13.80;1.00;;;;;;5134623;27;20494;-74
2021/10/04 01:28:29;;;;;;;58.10;2.70;;;13.80;1.00;;;;;;5135372;27;20464;-73
2021/10/04 01:30:57;;;;;;;58.07;2.60;;;13.80;1.00;;;;;;5135271;27;20477;-74
2021/10/04 01:33:24;;;;;;;58.20;2.60;;;13.80;1.00;;;;;;5133145;27;20455;-73
2021/10/04 01:35:51;;;;;;;58.20;2.60;;;13.80;1.00;;;;;;5134486;27;20571;-74
2021/10/04 01:38:19;;;;;;;58.13;2.97;;;13.80;1.00;;;;;;5135204;27;20556;-73
2021/10/04 01:40:46;;;;;;;58.20;2.70;;;13.70;1.00;;;;;;5134051;27;20449;-73
2021/10/04 01:43:14;;;;;;;58.13;2.70;;;13.70;1.00;;;;;;5134976;27;20924;-73
2021/10/04 01:45:41;;;;;;;58.27;2.70;;;13.70;1.00;;;;;;5134696;27;20532;-73
2021/10/04 01:48:08;;;;;;;58.37;2.70;;;13.60;1.00;;;;;;5134679;27;20468;-73
2021/10/04 01:50:37;;;;;;;58.23;2.80;;;13.60;1.00;;;;;;5132542;27;20448;-73
2021/10/04 01:53:05;;;;;;;58.27;2.87;;;13.60;1.00;;;;;;5134957;27;20544;-73
2021/10/04 01:55:33;;;;;;;58.10;2.60;;;13.70;1.00;;;;;;5134397;27;20480;-73
2021/10/04 01:58:01;;;;;;;58.07;2.60;;;13.60;1.00;;;;;;5134595;27;20460;-73
2021/10/04 02:00:29;;;;;;;58.20;2.67;;;13.60;1.00;;;;;;5134593;27;20944;-74
2021/10/04 02:02:57;;;;;;;58.13;2.73;;;13.60;1.00;;;;;;5134701;27;20861;-73
2021/10/04 02:05:25;;;;;;;58.07;2.60;;;13.60;1.00;;;;;;5134584;27;20544;-73
2021/10/04 02:07:53;;;;;;;58.07;2.63;;;13.50;1.00;;;;;;5134204;27;21002;-73
2021/10/04 02:10:22;;;;;;;58.37;2.63;;;13.60;1.00;;;;;;5134436;27;20444;-73
2021/10/04 02:12:50;;;;;;;58.30;2.50;;;13.60;1.00;;;;;;5133903;27;20543;-74
2021/10/04 02:15:17;;;;;;;58.13;2.80;;;13.50;1.00;;;;;;5134546;27;20487;-73
2021/10/04 02:17:45;;;;;;;58.27;2.70;;;13.50;1.00;;;;;;5134026;27;20465;-73
2021/10/04 02:20:16;;;;;;;58.37;2.67;;;13.50;1.00;;;;;;5134562;27;20451;-73
2021/10/04 02:22:43;;;;;;;58.40;2.80;;;13.50;1.00;;;;;;5132671;27;20532;-73
2021/10/04 02:25:11;;;;;;;58.27;2.60;;;13.50;1.00;;;;;;5133901;27;20499;-73
2021/10/04 02:27:38;;;;;;;58.17;2.70;;;13.50;1.00;;;;;;5133711;27;20551;-73
2021/10/04 02:30:10;;;;;;;58.53;3.00;;;13.50;1.00;;;;;;5133896;27;21023;-74
2021/10/04 02:32:36;;;;;;;58.17;2.77;;;13.50;1.00;;;;;;5134279;27;21020;-73
2021/10/04 02:35:04;;;;;;;58.27;2.90;;;13.50;1.00;;;;;;5133877;27;20482;-73
2021/10/04 02:37:31;;;;;;;58.40;2.70;;;13.50;1.00;;;;;;5133694;27;20554;-74
2021/10/04 02:39:58;;;;;;;58.23;2.63;;;13.50;1.00;;;;;;5133964;27;20527;-74
2021/10/04 02:42:25;;;;;;;58.37;2.80;;;13.40;1.00;;;;;;5133879;27;20487;-74
2021/10/04 02:44:53;;;;;;;58.17;2.73;;;13.40;1.00;;;;;;5133889;27;20451;-73
2021/10/04 02:47:21;;;;;;;58.30;2.60;;;13.40;1.00;;;;;;5133597;27;20532;-73
2021/10/04 02:49:48;;;;;;;58.07;2.70;;;13.40;1.00;;;;;;5133879;27;20536;-73
2021/10/04 02:52:17;;;;;;;58.40;2.70;;;13.40;1.00;;;;;;5133982;27;20527;-73
2021/10/04 02:54:44;;;;;;;58.20;2.70;;;13.40;1.00;;;;;;5138323;27;21011;-73
2021/10/04 02:57:11;;;;;;;58.30;2.60;;;13.30;1.00;;;;;;5144724;27;20480;-73
2021/10/04 02:59:38;;;;;;;58.20;2.70;;;13.30;1.00;;;;;;5145565;27;20547;-73
2021/10/04 03:02:04;;;;;;;58.27;2.80;;;13.30;1.00;;;;;;5145020;27;20444;-73
2021/10/04 03:04:33;;;;;;;58.03;2.60;;;13.30;1.00;;;;;;5143650;27;20443;-73
2021/10/04 03:07:00;;;;;;;58.07;2.63;;;13.30;1.00;;;;;;5142107;27;20953;-73
2021/10/04 03:09:27;;;;;;;58.27;2.60;;;13.20;1.00;;;;;;5141844;27;20460;-74
2021/10/04 03:11:53;;;;;;;58.10;2.50;;;13.10;1.00;;;;;;5142043;27;20456;-73
2021/10/04 03:14:20;;;;;;;58.30;2.63;;;13.10;1.00;;;;;;5135064;27;20539;-74
2021/10/04 03:16:47;;;;;;;58.43;2.70;;;13.10;1.00;;;;;;5132842;27;20485;-74
2021/10/04 03:19:14;;;;;;;58.17;2.70;;;13.10;1.00;;;;;;5133243;27;20486;-74
2021/10/04 03:21:42;;;;;;;58.23;2.70;;;13.10;1.00;;;;;;5133117;27;20463;-74
2021/10/04 03:24:10;;;;;;;58.37;2.70;;;13.00;1.00;;;;;;5132930;27;20443;-73
2021/10/04 03:26:37;;;;;;;58.37;2.87;;;13.00;1.00;;;;;;5132319;27;20445;-74
2021/10/04 03:29:04;;;;;;;58.33;2.60;;;13.00;1.00;;;;;;5133386;27;20548;-74
2021/10/04 03:31:31;;;;;;;58.27;2.50;;;13.00;1.00;;;;;;5131989;27;20595;-74
2021/10/04 03:33:58;;;;;;;58.43;2.43;;;13.10;1.00;;;;;;5132920;27;20449;-73
2021/10/04 03:36:24;;;;;;;58.23;2.47;;;13.00;1.00;;;;;;5132458;27;20476;-74
2021/10/04 03:38:53;;;;;;;58.07;2.80;;;13.10;1.00;;;;;;5132879;27;20499;-73
2021/10/04 03:41:21;;;;;;;58.17;2.70;;;13.00;1.00;;;;;;5133216;27;20853;-73
2021/10/04 03:43:48;;;;;;;58.30;2.73;;;13.10;1.00;;;;;;5132905;27;21055;-74
2021/10/04 03:46:14;;;;;;;58.27;2.73;;;13.10;1.00;;;;;;5132446;27;20444;-74
2021/10/04 03:48:41;;;;;;;58.17;2.60;;;13.00;1.00;;;;;;5132940;27;20559;-74
2021/10/04 03:51:08;;;;;;;58.23;2.77;;;13.00;1.00;;;;;;5132603;28;20492;-74
2021/10/04 03:53:35;;;;;;;58.27;2.60;;;13.00;1.00;;;;;;5132460;28;20535;-74
2021/10/04 03:56:04;;;;;;;58.53;2.90;;;13.00;1.00;;;;;;5132279;28;20575;-74
2021/10/04 03:58:31;;;;;;;58.27;2.60;;;13.00;1.00;;;;;;5132741;28;20551;-74
2021/10/04 04:00:58;;;;;;;58.20;2.73;;;13.00;1.00;;;;;;5133139;28;20479;-74
2021/10/04 04:03:25;;;;;;;57.97;2.60;;;13.00;1.00;;;;;;5130721;28;20538;-74
2021/10/04 04:05:52;;;;;;;58.37;2.60;;;13.00;1.00;;;;;;5132144;28;20531;-74
2021/10/04 04:08:19;;;;;;;58.17;2.60;;;13.00;1.00;;;;;;5132407;28;21074;-74
2021/10/04 04:10:46;;;;;;;58.17;2.57;;;13.00;1.00;;;;;;5132645;28;20813;-74
2021/10/04 04:13:14;;;;;;;58.17;2.63;;;13.00;1.00;;;;;;5132425;28;20679;-74
2021/10/04 04:15:41;;;;;;;57.90;2.57;;;13.00;1.00;;;;;;5132198;28;20472;-74
2021/10/04 04:18:10;;;;;;;58.07;2.70;;;13.00;1.00;;;;;;5132511;28;20478;-74
2021/10/04 04:20:36;;;;;;;58.17;2.50;;;13.00;1.00;;;;;;5132300;28;20441;-74
2021/10/04 04:23:03;;;;;;;58.77;2.70;;;13.00;1.00;;;;;;5132555;28;20535;-73
2021/10/04 04:25:30;;;;;;;58.03;2.60;;;13.00;1.00;;;;;;5132166;28;20460;-73
2021/10/04 04:27:58;;;;;;;58.07;2.70;;;12.90;1.00;;;;;;5132569;28;20553;-73
2021/10/04 04:30:27;;;;;;;58.27;2.77;;;12.90;1.00;;;;;;5132437;28;20449;-73
2021/10/04 04:32:54;;;;;;;58.03;2.67;;;12.90;1.00;;;;;;5132213;28;20532;-73
2021/10/04 04:35:22;;;;;;;58.23;2.60;;;12.90;1.00;;;;;;5130465;28;20480;-73
2021/10/04 04:37:49;;;;;;;58.13;2.43;;;12.80;1.00;;;;;;5135653;27;20902;-73
2021/10/04 04:40:17;;;;;;;58.07;2.60;;;12.80;1.00;;;;;;5136249;27;20449;-73
2021/10/04 04:42:45;;;;;;;58.23;2.80;;;12.80;1.00;;;;;;5136382;27;20535;-73
2021/10/04 04:45:14;;;;;;;58.13;2.67;;;12.80;1.00;;;;;;5136258;27;20447;-73
2021/10/04 04:47:42;;;;;;;58.03;2.50;;;12.80;1.00;;;;;;5135447;27;20477;-73
2021/10/04 04:50:10;;;;;;;58.20;2.60;;;12.80;1.00;;;;;;5136038;27;20440;-73
2021/10/04 04:52:37;;;;;;;58.27;2.67;;;12.70;1.00;;;;;;5136213;27;20531;-73
2021/10/04 04:55:04;;;;;;;58.47;2.70;;;12.70;1.00;;;;;;5136170;27;20456;-73
2021/10/04 04:57:33;;;;;;;58.07;2.70;;;12.70;1.00;;;;;;5135542;27;20490;-73
2021/10/04 04:59:59;;;;;;;58.13;2.50;;;12.70;1.00;;;;;;5135726;27;20527;-73
2021/10/04 05:02:26;;;;;;;58.23;2.60;;;12.70;1.00;;;;;;5135853;27;20886;-73
2021/10/04 05:04:55;;;;;;;58.20;2.70;;;12.70;1.00;;;;;;5136050;27;20823;-73
2021/10/04 05:07:21;;;;;;;58.13;2.60;;;12.70;1.00;;;;;;5133652;27;20901;-73
2021/10/04 05:09:48;;;;;;;58.27;2.93;;;12.70;1.00;;;;;;5135886;27;20445;-73
2021/10/04 05:12:15;;;;;;;58.37;2.80;;;12.70;1.00;;;;;;5135776;27;20535;-73
2021/10/04 05:14:42;;;;;;;58.27;2.60;;;12.70;1.00;;;;;;5135816;27;20441;-73
2021/10/04 05:17:09;;;;;;;58.17;2.70;;;12.70;1.00;;;;;;5135367;27;20846;-73
2021/10/04 05:19:36;;;;;;;57.97;2.60;;;12.70;1.00;;;;;;5135831;27;20547;-73
2021/10/04 05:22:04;;;;;;;58.17;2.87;;;12.70;1.00;;;;;;5135657;27;20470;-73
2021/10/04 05:24:31;;;;;;;58.17;2.90;;;12.70;1.00;;;;;;5135231;27;20462;-73
2021/10/04 05:26:58;;;;;;;58.33;2.80;;;12.70;1.00;;;;;;5135200;27;20449;-73
2021/10/04 05:29:25;;;;;;;58.33;2.63;;;12.70;1.00;;;;;;5135181;27;20472;-73
2021/10/04 05:31:52;;;;;;;58.30;2.60;;;12.60;1.00;;;;;;5135500;27;20444;-73
2021/10/04 05:34:19;;;;;;;58.27;2.50;;;12.60;1.00;;;;;;5135473;27;20447;-73
2021/10/04 05:36:46;;;;;;;58.17;2.63;;;12.60;1.00;;;;;;5134644;27;21037;-73
2021/10/04 05:39:15;;;;;;;58.13;2.70;;;12.60;1.00;;;;;;5133039;27;20479;-73
2021/10/04 05:41:41;;;;;;;58.30;2.50;;;12.60;1.40;;;;;;5135028;27;20436;-73
2021/10/04 05:44:08;;;;;;;58.40;2.70;;;12.60;2.40;;;;;;5135132;27;20536;-73
2021/10/04 05:46:35;;;;;;;58.27;2.70;;;12.70;3.80;;;;;;5134911;27;20442;-73
2021/10/04 05:49:03;;;;;;;57.97;2.50;;;12.70;2.80;;;;;;5134274;27;20507;-73
2021/10/04 05:51:30;;;;;;;58.07;2.40;;;12.60;2.80;;;;;;5135056;27;20444;-73
2021/10/04 05:53:57;;;;;;;58.17;2.60;;;12.60;3.00;;;;;;5135153;27;21009;-73
2021/10/04 05:56:25;;;;;;;58.23;3.20;;;12.60;3.10;;;;;;5134259;27;20480;-73
2021/10/04 05:58:52;;;;;;;58.10;2.53;;;12.60;3.50;;;;;;5134761;27;20464;-73
2021/10/04 06:01:19;;;;;;;58.30;2.73;;;12.60;4.70;;;;;;5134828;27;20531;-73
2021/10/04 06:03:46;;;;;;;58.37;2.77;;;12.60;5.40;;;;;;5134719;27;20446;-73
2021/10/04 06:06:12;;;;;;;58.00;2.70;;;12.70;7.20;;;;;;5134630;27;20480;-73
2021/10/04 06:08:39;;;;;;;58.03;2.40;;;12.70;8.60;;;;;;5134577;27;20648;-73
2021/10/04 06:11:06;;;;;;;58.10;2.60;;;12.70;9.00;;;;;;5132436;27;20970;-73
2021/10/04 06:13:34;;;;;;;58.40;3.20;;;12.70;9.50;;;;;;5134483;27;20535;-73
2021/10/04 06:16:01;;;;;;;58.17;2.80;;;12.70;9.10;;;;;;5134360;27;20562;-73
2021/10/04 06:18:28;;;;;;;58.17;2.57;;;12.70;9.40;;;;;;5134411;27;20465;-73
2021/10/04 06:20:55;;;;;;;58.27;2.57;;;12.70;9.70;;;;;;5134385;27;20471;-73
2021/10/04 06:23:22;;;;;;;58.30;2.60;;;12.70;9.70;;;;;;5134491;27;20611;-73
2021/10/04 06:25:49;;;;;;;58.20;2.57;;;12.70;9.90;;;;;;5134393;27;20982;-73
2021/10/04 06:28:16;;;;;;;58.17;2.77;;;12.70;10.10;;;;;;5134451;27;20464;-73
2021/10/04 06:30:44;;;;;;;58.13;2.50;;;12.70;10.30;;;;;;5134045;27;20455;-72
2021/10/04 06:33:11;;;;;;;58.17;2.67;;;12.70;10.70;;;;;;5132643;27;20793;-72
2021/10/04 06:35:38;;;;;;;58.10;2.50;;;12.70;11.00;;;;;;5133769;27;20868;-72
2021/10/04 06:38:05;;;;;;;58.40;2.50;;;12.70;11.20;;;;;;5133674;27;20463;-72
2021/10/04 06:40:32;;;;;;;58.13;2.57;;;12.70;11.80;;;;;;5134131;27;20523;-72
2021/10/04 06:42:58;;;;;;;58.13;2.60;;;12.70;12.10;;;;;;5134059;27;20444;-72
2021/10/04 06:45:25;;;;;;;58.40;2.60;;;12.70;12.30;;;;;;5133767;27;20940;-72
2021/10/04 06:47:53;;;;;;;58.07;2.50;;;12.80;12.60;;;;;;5133617;27;20893;-72
2021/10/04 06:50:20;;;;;;;58.07;2.53;;;12.80;12.20;;;;;;5133811;27;20451;-72
2021/10/04 06:52:47;;;;;;;58.33;2.40;;;12.90;12.10;;;;;;5133803;27;20468;-72
2021/10/04 06:55:14;;;;;;;58.27;2.60;;;12.90;12.10;;;;;;5132838;27;20876;-72
2021/10/04 06:57:41;;;;;;;58.13;2.60;;;12.90;11.50;;;;;;5131944;27;20480;-71
2021/10/04 07:00:11;;;;;;;58.07;2.50;;;12.90;11.30;;;;;;5133897;27;20441;-72
2021/10/04 07:02:39;;;;;;;58.03;2.50;;;12.90;11.30;;;;;;5133651;27;20535;-72
2021/10/04 07:05:09;;;;;;;58.37;3.00;;;13.00;11.80;;;;;;5133356;27;20925;-72
2021/10/04 07:07:36;;;;;;;57.80;2.50;;;13.00;12.10;;;;;;5133412;27;20533;-72
2021/10/04 07:10:05;;;;;;;57.73;2.40;;;13.00;11.80;;;;;;5133738;27;21010;-73
2021/10/04 07:12:31;;;;;;;58.60;3.30;;;13.10;12.30;;;;;;5133382;27;20460;-72
2021/10/04 07:14:58;;;;;;;58.07;2.83;;;13.10;12.40;;;;;;5133421;27;20456;-73
2021/10/04 07:17:25;;;;;;;58.07;2.60;;;13.10;12.40;;;;;;5133009;27;20560;-72
2021/10/04 07:19:52;;;;;;;59.37;3.53;;;13.20;11.80;;;;;;5133247;27;20483;-71
2021/10/04 07:22:20;;;;;;;57.97;2.50;;;13.20;10.90;;;;;;5133414;27;20527;-73
2021/10/04 07:24:47;;;;;;;57.93;2.60;;;13.20;10.00;;;;;;5133218;27;20875;-73
2021/10/04 07:27:14;;;;;;;57.87;2.57;;;13.20;9.00;;;;;;5132956;27;20879;-72
2021/10/04 07:29:42;;;;;;;58.10;2.40;;;13.20;7.40;;;;;;5132969;27;20449;-72
2021/10/04 07:32:09;;;;;;;58.07;3.13;;;13.20;7.80;;;;;;5131166;27;20449;-72
2021/10/04 07:34:36;;;;;;;58.13;2.70;;;13.20;7.70;;;;;;5133184;27;20539;-72
2021/10/04 07:37:04;;;;;;;57.90;2.57;;;13.20;6.40;;;;;;5132602;27;20481;-72
2021/10/04 07:39:33;;;;;;;57.97;2.60;;;13.20;4.70;;;;;;5132908;27;20465;-72
2021/10/04 07:42:00;;;;;;;58.03;2.50;;;13.20;3.30;;;;;;5132929;27;20528;-72
2021/10/04 07:44:27;;;;;;;58.10;2.60;;;13.20;2.90;;;;;;5132989;27;21031;-72
2021/10/04 07:46:57;;;;;;;58.03;2.63;;;13.20;2.80;;;;;;5132183;27;20477;-72
2021/10/04 07:49:25;;;;;;;58.17;2.30;;;13.20;2.80;;;;;;5133034;27;20514;-72
2021/10/04 07:51:52;;;;;;;58.13;2.70;;;13.20;1.80;;;;;;5132808;28;20447;-72
2021/10/04 07:54:19;;;;;;;58.00;2.50;;;13.10;1.00;;;;;;5132813;28;20467;-72
2021/10/04 07:56:47;;;;;;;57.97;2.40;;;13.10;1.00;;;;;;5132165;28;20468;-72
2021/10/04 07:59:14;;;;;;;58.30;2.80;;;13.00;1.00;;;;;;5132415;28;20843;-72
2021/10/04 08:01:41;;;;;;;57.97;2.50;;;13.00;1.00;;;;;;5130845;28;20472;-72
2021/10/04 08:04:07;;;;;;;57.87;2.73;;;13.00;1.00;;;;;;5132808;28;20528;-72
2021/10/04 08:06:34;;;;;;;58.13;2.40;;;13.00;1.00;;;;;;5132330;28;20436;-72
2021/10/04 08:09:01;;;;;;;58.13;2.90;;;13.00;1.00;;;;;;5132593;28;20543;-72
2021/10/04 08:11:28;;;;;;;57.83;2.70;;;13.00;1.00;;;;;;5134025;27;20472;-72
2021/10/04 08:13:57;;;;;;;57.97;2.47;;;13.00;1.00;;;;;;5136548;27;20988;-72
2021/10/04 08:16:24;;;;;;;58.10;2.50;;;13.00;1.80;;;;;;5136425;27;20480;-72
2021/10/04 08:18:50;;;;;;;57.97;2.60;;;13.10;2.80;;;;;;5136820;27;20467;-72
2021/10/04 08:21:17;;;;;;;58.60;2.90;;;13.20;5.70;;;;;;5136811;27;20936;-72
2021/10/04 08:23:45;;;;;;;58.30;2.73;;;13.30;8.60;;;;;;5136461;27;20446;-72
2021/10/04 08:26:12;;;;;;;57.83;2.70;;;13.50;10.30;;;;;;5136184;27;20456;-72
2021/10/04 08:28:39;;;;;;;58.20;2.60;;;13.50;9.90;;;;;;5136358;27;20474;-72
2021/10/04 08:31:07;;;;;;;58.03;2.50;;;13.60;9.00;;;;;;5136432;27;20541;-72
2021/10/04 08:33:35;;;;;;;57.97;2.50;;;13.60;8.90;;;;;;5134256;27;20455;-72
2021/10/04 08:36:05;;;;;;;57.97;2.50;;;13.60;8.00;;;;;;5136026;27;20486;-72
2021/10/04 08:38:32;;;;;;;57.97;2.43;;;13.60;2.70;;;;;;5136456;27;20866;-72
2021/10/04 08:40:59;;;;;;;58.50;3.10;;;13.50;1.30;;;;;;5136067;27;20460;-72
2021/10/04 08:43:26;;;;;;;57.97;2.57;;;13.50;1.40;;;;;;5136268;27;20536;-72
2021/10/04 08:45:57;;;;;;;57.77;2.50;;;13.50;1.00;;;;;;5136005;27;20441;-72
2021/10/04 08:48:26;;;;;;;57.83;2.70;;;13.50;1.00;;;;;;5136309;27;20471;-72
2021/10/04 08:50:55;;;;;;;58.00;2.50;;;13.50;1.00;;;;;;5136075;27;20452;-72
2021/10/04 08:53:23;;;;;;;57.97;2.50;;;13.60;1.00;;;;;;5135876;27;20765;-72
2021/10/04 08:55:50;;;;;;;57.87;2.50;;;13.60;1.00;;;;;;5135627;27;20712;-72
2021/10/04 08:58:17;;;;;;;57.90;2.50;;;13.60;1.00;;;;;;5135928;27;20489;-72
2021/10/04 09:00:44;;;;;;;57.77;2.50;;;13.60;1.80;;;;;;5135701;27;21029;-72
2021/10/04 09:03:13;;;;;;;57.97;2.57;;;13.60;1.00;;;;;;5136120;27;20445;-72
2021/10/04 09:05:44;;;;;;;58.37;2.93;;;13.60;1.00;;;;;;5133051;27;20459;-72
2021/10/04 09:08:14;;;;;;;58.03;2.70;;;13.60;1.00;;;;;;5135835;27;20465;-72
2021/10/04 09:10:44;;;;;;;58.17;2.80;;;13.60;1.00;;;;;;5135640;27;20454;-72
2021/10/04 09:13:13;;;;;;;58.07;2.70;;;13.60;1.00;;;;;;5135689;27;20839;-72
2021/10/04 09:15:41;;;;;;;58.20;2.50;;;13.70;1.00;;;;;;5135412;27;20452;-72
2021/10/04 09:18:10;;;;;;;58.03;2.50;;;13.70;1.00;;;;;;5135444;27;20492;-72
2021/10/04 09:20:58;;;;;;;58.13;2.60;;;13.70;1.00;;;;;;5135747;27;20448;-72
2021/10/04 09:23:43;;;;;;;58.00;2.60;;;13.70;1.00;;;;;;5134233;27;20437;-72
2021/10/04 09:26:12;;;;;;;58.07;2.50;;;13.70;1.00;;;;;;5135047;27;20460;-72
2021/10/04 09:28:43;;;;;;;58.13;2.60;;;13.70;1.00;;;;;;5135198;27;20496;-72
2021/10/04 09:31:19;;;;;;;58.07;2.60;;;13.70;1.00;;;;;;5135473;27;20865;-72
2021/10/04 09:34:04;;;;;;;58.07;2.80;;;13.80;1.00;;;;;;5135270;27;20456;-72
2021/10/04 09:36:35;;;;;;;58.00;2.47;;;13.90;1.00;;;;;;5129689;27;20844;-72
2021/10/04 09:39:18;;;;;;;58.17;2.53;;;13.90;1.00;;;;;;5114512;28;20549;-72
2021/10/04 09:42:00;;;;;;;58.07;2.70;;;13.90;1.00;;;;;;5114456;28;20493;-72
2021/10/04 09:44:42;;;;;;;57.87;2.60;;;13.90;1.00;;;;;;5114542;28;20444;-72
2021/10/04 09:47:10;;;;;;;58.03;2.60;;;13.90;1.00;;;;;;5114570;28;20552;-72
2021/10/04 09:49:59;;;;;;;58.27;2.60;;;14.00;1.00;;;;;;5114125;28;21041;-72
2021/10/04 09:52:36;;;;;;;57.97;2.60;;;14.00;1.00;;;;;;5109167;28;20552;-70
2021/10/04 09:55:14;;;;;;;58.10;2.73;;;14.10;1.00;;;;;;5114354;28;20525;-71
2021/10/04 09:57:40;;;;;;;58.00;2.57;;;14.10;1.00;;;;;;5113791;28;20492;-72
2021/10/04 10:00:08;;;;;;;57.97;2.70;;;14.10;1.00;;;;;;5114092;28;20529;-72
2021/10/04 10:02:36;;;;;;;58.10;2.70;;;14.10;1.00;;;;;;5114466;28;20551;-72
2021/10/04 10:05:03;;;;;;;57.97;2.70;;;14.10;1.00;;;;;;5114095;28;20450;-72
2021/10/04 10:07:30;;;;;;;58.13;2.50;;;14.10;1.10;;;;;;5113471;28;20448;-72
2021/10/04 10:10:00;;;;;;;58.30;2.83;;;14.10;3.80;;;;;;5132730;27;20533;-70
2021/10/04 10:12:27;;;;;;;58.83;4.00;;;14.10;6.70;;;;;;5134630;27;20973;-71
2021/10/04 10:14:54;;;;;;;57.83;2.40;;;14.10;9.60;;;;;;5134216;27;20456;-71
2021/10/04 10:17:26;;;;;;;57.97;2.60;;;14.20;12.70;;;;;;5134013;27;20887;-71
2021/10/04 10:19:56;;;;;;;58.07;2.70;;;14.20;15.90;;;;;;5134366;27;20536;-71
2021/10/04 10:22:24;;;;;;;57.77;2.50;;;14.30;19.60;;;;;;5134517;27;20459;-71
2021/10/04 10:24:51;;;;;;;58.07;2.50;;;14.30;21.40;;;;;;5134286;27;20527;-71
2021/10/04 10:27:20;;;;;;;58.00;2.70;;;14.40;19.70;;;;;;5133580;27;20533;-71
2021/10/04 10:29:47;;;;;;;58.20;2.40;;;14.50;20.60;;;;;;5134312;27;20553;-71
2021/10/04 10:32:16;;;;;;;58.20;2.80;;;14.50;20.90;;;;;;5134303;27;20453;-71
2021/10/04 10:35:01;;;;;;;58.07;2.60;;;14.60;22.60;;;;;;5133900;27;20531;-71
2021/10/04 10:37:44;;;;;;;58.47;3.37;;;14.70;23.30;;;;;;5133437;27;20848;-70
2021/10/04 10:40:12;;;;;;;58.17;2.60;;;14.70;22.60;;;;;;5132518;27;20454;-71
2021/10/04 10:42:58;;;;;;;58.07;2.60;;;14.60;21.90;;;;;;5134134;27;20510;-70
2021/10/04 10:45:25;;;;;;;58.20;2.60;;;14.50;21.30;;;;;;5133669;27;20536;-70
2021/10/04 10:47:57;;;;;;;58.03;2.60;;;14.50;19.20;;;;;;5134149;27;20461;-70
2021/10/04 10:50:35;;;;;;;58.13;2.70;;;14.50;18.00;;;;;;5134189;27;20528;-70
2021/10/04 10:53:28;;;;;;;57.87;2.50;;;14.60;18.90;;;;;;5133696;27;21029;-71
2021/10/04 10:55:58;;;;;;;58.33;2.70;;;14.80;25.60;;;;;;5133816;27;20520;-70
2021/10/04 10:58:28;;;;;;;57.87;2.70;;;15.00;27.30;;;;;;5133462;27;20481;-71
2021/10/04 11:01:16;;;;;;;58.17;2.60;;;15.10;23.70;;;;;;5133843;27;20478;-71
2021/10/04 11:04:01;;;;;;;58.07;2.63;;;15.20;23.60;;;;;;5133630;27;20878;-71
2021/10/04 11:06:41;;;;;;;58.10;2.50;;;15.30;19.40;;;;;;5133124;27;20449;-71
2021/10/04 11:09:08;;;;;;;57.87;2.70;;;15.40;19.10;;;;;;5133745;27;20498;-71
2021/10/04 11:11:36;;;;;;;58.07;2.70;;;15.40;15.10;;;;;;5131272;27;20447;-71
2021/10/04 11:14:20;;;;;;;58.20;2.47;;;15.40;14.70;;;;;;5133302;27;20449;-71
2021/10/04 11:17:01;;;;;;;58.07;2.50;;;15.60;20.40;;;;;;5133097;27;20542;-71
2021/10/04 11:19:35;;;;;;;57.57;2.40;;;15.60;14.90;;;;;;5133104;27;20891;-71
2021/10/04 11:22:03;;;;;;;57.77;2.47;;;15.60;1.00;;;;;;5133122;27;20451;-71
2021/10/04 11:24:30;;;;;;;58.07;2.67;;;15.60;1.00;;;;;;5133553;27;20470;-70
2021/10/04 11:27:01;;;;;;;57.67;2.30;;;15.50;1.00;;;;;;5132794;27;20542;-71
2021/10/04 11:29:30;;;;;;;57.83;2.33;;;15.50;1.00;;;;;;5133679;27;20819;-71
2021/10/04 11:31:57;;;;;;;58.10;2.40;;;15.60;1.00;;;;;;5132919;27;20497;-71
2021/10/04 11:34:24;;;;;;;58.17;2.70;;;15.60;1.00;;;;;;5133278;27;20466;-71
2021/10/04 11:36:53;;;;;;;57.87;2.60;;;15.50;1.00;;;;;;5132632;27;20459;-70
2021/10/04 11:39:24;;;;;;;57.97;2.73;;;15.50;1.00;;;;;;5133193;27;20483;-72
2021/10/04 11:41:52;;;;;;;57.87;2.43;;;15.50;1.00;;;;;;5132816;27;20494;-70
2021/10/04 11:44:21;;;;;;;57.97;2.40;;;15.60;1.00;;;;;;5131101;27;20883;-70
2021/10/04 11:46:52;;;;;;;57.87;2.53;;;15.60;1.00;;;;;;5132152;27;20791;-70
2021/10/04 11:49:22;;;;;;;57.73;2.70;;;15.70;1.00;;;;;;5132964;27;20553;-72
2021/10/04 11:51:51;;;;;;;57.97;2.70;;;15.80;1.00;;;;;;5132797;28;20539;-71
2021/10/04 11:54:41;;;;;;;57.67;2.40;;;15.90;1.00;;;;;;5132695;28;20452;-70
2021/10/04 11:57:10;;;;;;;57.80;2.40;;;15.90;1.00;;;;;;5132754;28;20954;-70
2021/10/04 11:59:53;;;;;;;57.93;2.30;;;16.00;1.00;;;;;;5132684;28;20494;-70
2021/10/04 12:02:27;;;;;;;58.07;2.60;;;16.00;1.00;;;;;;5132768;28;20526;-71
2021/10/04 12:05:13;;;;;;;58.00;2.50;;;15.80;1.00;;;;;;5132631;28;20456;-71
2021/10/04 12:07:54;;;;;;;57.77;2.50;;;15.70;1.00;;;;;;5132705;28;20462;-71
2021/10/04 12:10:21;;;;;;;58.03;2.37;;;15.40;1.00;;;;;;5132490;28;20454;-70
2021/10/04 12:12:48;;;;;;;58.07;2.40;;;15.20;1.00;;;;;;5132321;28;20478;-70
2021/10/04 12:15:15;;;;;;;58.10;2.43;;;15.20;1.00;;;;;;5120128;27;20462;-70
2021/10/04 12:17:44;;;;;;;57.43;2.60;;;15.10;1.00;;;;;;5111364;28;20467;-70
2021/10/04 12:20:23;;;;;;;57.83;2.30;;;15.10;1.00;;;;;;5111873;28;20446;-70
2021/10/04 12:22:50;;;;;;;58.03;2.60;;;15.30;1.00;;;;;;5112066;28;20505;-70
2021/10/04 12:25:29;;;;;;;58.23;2.50;;;15.40;1.00;;;;;;5112066;28;20555;-70
2021/10/04 12:28:03;;;;;;;57.90;2.30;;;15.60;1.00;;;;;;5111672;28;20460;-70
2021/10/04 12:30:42;;;;;;;58.07;2.60;;;15.80;1.00;;;;;;5112105;28;20863;-70
2021/10/04 12:33:10;;;;;;;57.83;2.30;;;15.90;1.00;;;;;;5112114;28;20447;-70
2021/10/04 12:35:37;;;;;;;57.80;2.43;;;16.00;1.00;;;;;;5111623;28;20544;-70
2021/10/04 12:38:08;;;;;;;57.83;2.50;;;16.10;1.00;;;;;;5111679;28;20488;-70
2021/10/04 12:40:42;;;;;;;57.97;2.33;;;16.10;1.00;;;;;;5112151;28;20536;-71
2021/10/04 12:43:12;;;;;;;57.97;2.60;;;16.40;1.00;;;;;;5112276;28;20817;-71
2021/10/04 12:45:40;;;;;;;58.20;2.60;;;16.60;1.00;;;;;;5110738;28;20444;-72
2021/10/04 12:48:14;;;;;;;58.07;2.50;;;16.80;1.00;;;;;;5111701;28;20556;-72
2021/10/04 12:50:42;;;;;;;57.87;2.57;;;16.90;1.00;;;;;;5111511;28;20527;-72
2021/10/04 12:53:15;;;;;;;57.87;2.60;;;17.10;1.00;;;;;;5131686;28;20459;-72